Time;durP1;ratioP1;P1;durP2;ratioP2;P2;SDS_P1;SDS_P2;PMS_P1;PMS_P2;Temp;Humidity;BMP_temperature;BMP_pressure;BME280_temperature;BME280_humidity;BME280_pressure;Samples;Min_cycle;Max_cycle;Signal;HPM_P1;HPM_P2
2023/03/28 00:02:06;;;;;;;10.07;1.67;;;3.80;99.90;;;;;;4998803;28;20681;-87
2023/03/28 00:04:31;;;;;;;15.57;1.65;;;3.70;99.90;;;;;;4999993;28;20038;-88
2023/03/28 00:06:57;;;;;;;14.73;1.42;;;3.80;99.90;;;;;;5000991;28;20100;-89
2023/03/28 00:09:24;;;;;;;10.57;1.48;;;3.70;99.90;;;;;;4967761;28;20125;-88
2023/03/28 00:11:50;;;;;;;9.25;1.38;;;4.60;99.90;;;;;;4992326;28;20050;-88
2023/03/28 00:14:16;;;;;;;9.23;1.10;;;3.70;99.90;;;;;;4982940;28;20065;-88
2023/03/28 00:16:45;;;;;;;13.05;1.38;;;3.60;99.90;;;;;;4983710;28;20038;-87
2023/03/28 00:19:15;;;;;;;9.75;1.23;;;3.60;99.90;;;;;;4986932;28;20041;-88
2023/03/28 00:21:47;;;;;;;7.15;1.35;;;3.60;99.90;;;;;;4979604;28;20081;-88
2023/03/28 00:24:15;;;;;;;10.15;1.48;;;3.50;99.90;;;;;;4998254;28;20052;-88
2023/03/28 00:26:43;;;;;;;9.63;1.65;;;3.50;99.90;;;;;;4983438;28;20049;-88
2023/03/28 00:29:14;;;;;;;11.02;1.90;;;3.50;99.90;;;;;;4992179;28;20112;-88
2023/03/28 00:31:41;;;;;;;5.75;1.20;;;3.10;99.90;;;;;;4999060;28;20388;-88
2023/03/28 00:34:09;;;;;;;11.48;1.38;;;3.40;99.90;;;;;;4998263;28;20041;-88
2023/03/28 00:36:38;;;;;;;6.93;1.48;;;3.30;99.90;;;;;;5006253;28;20048;-89
2023/03/28 00:39:10;;;;;;;11.70;1.70;;;3.30;99.90;;;;;;4995142;28;20153;-88
2023/03/28 00:41:41;;;;;;;10.38;1.40;;;3.30;99.90;;;;;;4998971;28;20049;-88
2023/03/28 00:44:44;;;;;;;7.90;1.30;;;3.30;99.90;;;;;;4998633;28;20053;-88
2023/03/28 00:47:19;;;;;;;4.65;1.10;;;3.30;99.90;;;;;;4989176;28;20814;-88
2023/03/28 00:49:48;;;;;;;9.02;1.42;;;3.30;99.90;;;;;;4998352;28;20104;-89
2023/03/28 00:52:16;;;;;;;9.85;1.33;;;3.20;99.90;;;;;;4997289;28;20049;-88
2023/03/28 00:54:44;;;;;;;8.15;1.15;;;3.20;99.90;;;;;;4999585;28;20038;-89
2023/03/28 00:57:12;;;;;;;10.40;1.50;;;3.20;99.90;;;;;;4996176;28;20062;-88
2023/03/28 00:59:41;;;;;;;6.85;1.10;;;3.20;99.90;;;;;;5006593;28;20042;-89
2023/03/28 01:02:07;;;;;;;6.00;1.00;;;3.10;99.90;;;;;;4998342;28;20050;-88
2023/03/28 01:04:38;;;;;;;7.47;1.35;;;3.10;99.90;;;;;;4994815;28;20670;-88
2023/03/28 01:07:06;;;;;;;8.18;1.20;;;3.10;99.90;;;;;;4997571;28;20045;-89
2023/03/28 01:09:32;;;;;;;11.27;1.30;;;3.10;99.90;;;;;;5000711;28;20412;-88
2023/03/28 01:11:59;;;;;;;13.43;1.50;;;4.30;99.90;;;;;;4984975;28;20813;-89
2023/03/28 01:14:27;;;;;;;8.23;1.25;;;3.70;99.90;;;;;;4998288;28;20387;-88
2023/03/28 01:17:01;;;;;;;13.88;1.80;;;2.90;99.90;;;;;;4978846;28;20046;-88
2023/03/28 01:19:34;;;;;;;10.00;2.00;;;3.00;99.90;;;;;;5001214;28;20042;-89
2023/03/28 01:22:05;;;;;;;9.48;2.15;;;3.20;99.90;;;;;;5020789;28;20054;-88
2023/03/28 01:24:50;;;;;;;13.32;2.28;;;3.00;99.90;;;;;;5004408;28;20558;-89
2023/03/28 01:27:20;;;;;;;;;;;3.00;99.90;;;;;;5007129;28;20050;-88
2023/03/28 01:30:06;;;;;;;10.02;1.33;;;3.00;99.90;;;;;;5003284;28;19925;-88
2023/03/28 01:33:00;;;;;;;7.97;1.17;;;2.90;99.90;;;;;;4998190;28;20088;-89
2023/03/28 01:36:03;;;;;;;9.25;1.95;;;2.90;99.90;;;;;;5004805;28;20038;-89
2023/03/28 01:38:53;;;;;;;7.63;1.58;;;2.90;99.90;;;;;;4996459;28;20569;-88
2023/03/28 01:41:47;;;;;;;9.27;1.48;;;2.90;99.90;;;;;;4993056;28;20153;-89
2023/03/28 01:44:31;;;;;;;5.53;1.10;;;2.80;99.90;;;;;;4991976;28;20068;-88
2023/03/28 01:47:33;;;;;;;12.32;1.15;;;2.80;99.90;;;;;;5004047;28;20375;-89
2023/03/28 01:50:11;;;;;;;5.80;1.30;;;2.80;99.90;;;;;;4997950;28;20054;-88
2023/03/28 01:52:55;;;;;;;12.02;2.65;;;2.70;99.90;;;;;;5002362;28;20137;-88
2023/03/28 01:55:29;;;;;;;8.38;1.30;;;2.70;99.90;;;;;;5013619;28;20026;-88
2023/03/28 01:58:01;;;;;;;8.47;1.40;;;2.70;99.90;;;;;;4997109;28;20038;-88
2023/03/28 02:00:44;;;;;;;15.48;1.70;;;2.70;99.90;;;;;;4997802;28;20119;-88
2023/03/28 02:03:30;;;;;;;8.85;1.55;;;2.70;99.90;;;;;;5012475;28;20103;-89
2023/03/28 02:06:03;;;;;;;12.30;1.48;;;2.70;99.90;;;;;;4982620;28;20050;-89
2023/03/28 02:08:33;;;;;;;8.15;1.15;;;2.60;99.90;;;;;;5014869;28;20100;-89
2023/03/28 02:10:59;;;;;;;9.88;1.60;;;2.60;99.90;;;;;;5013453;28;20131;-88
2023/03/28 02:13:32;;;;;;;6.78;1.88;;;2.50;99.90;;;;;;5014029;28;20042;-87
2023/03/28 02:16:01;;;;;;;14.77;2.50;;;2.50;99.90;;;;;;5026004;28;20053;-87
2023/03/28 02:18:37;;;;;;;7.88;1.33;;;2.50;99.90;;;;;;5001570;28;20041;-88
2023/03/28 02:21:20;;;;;;;8.57;1.20;;;2.50;99.90;;;;;;5008449;28;20049;-88
2023/03/28 02:23:52;;;;;;;7.82;1.75;;;2.40;99.90;;;;;;5006847;28;20035;-87
2023/03/28 02:26:19;;;;;;;11.45;1.52;;;2.40;99.90;;;;;;4996123;28;20054;-88
2023/03/28 02:28:47;;;;;;;6.90;1.30;;;2.40;99.90;;;;;;4980584;28;20045;-88
2023/03/28 02:31:17;;;;;;;7.75;1.02;;;2.40;99.90;;;;;;5000232;28;20053;-88
2023/03/28 02:33:45;;;;;;;12.38;1.70;;;2.40;99.90;;;;;;4999352;28;20302;-87
2023/03/28 02:36:52;;;;;;;6.10;1.13;;;2.20;99.90;;;;;;5001289;28;20052;-87
2023/03/28 02:39:43;;;;;;;12.52;1.42;;;2.40;99.90;;;;;;5004310;28;20037;-87
2023/03/28 02:42:33;;;;;;;14.52;1.80;;;2.40;99.90;;;;;;4997081;28;20148;-88
2023/03/28 02:45:20;;;;;;;12.68;1.65;;;2.40;99.90;;;;;;5005692;28;20105;-87
2023/03/28 02:48:04;;;;;;;13.38;1.98;;;2.40;99.90;;;;;;5008019;28;20056;-87
2023/03/28 02:50:56;;;;;;;7.18;1.40;;;2.40;99.90;;;;;;4998058;28;20120;-87
2023/03/28 02:53:45;;;;;;;12.88;1.40;;;2.50;99.90;;;;;;5002882;28;20477;-88
2023/03/28 02:56:13;;;;;;;11.25;1.45;;;2.50;99.90;;;;;;5017266;28;20484;-86
2023/03/28 02:58:50;;;;;;;16.00;1.80;;;2.50;99.90;;;;;;4993558;28;20052;-87
2023/03/28 03:01:16;;;;;;;7.57;1.20;;;2.50;99.90;;;;;;4983767;28;20050;-87
2023/03/28 03:03:42;;;;;;;8.57;1.23;;;2.50;99.90;;;;;;4997579;28;20128;-88
2023/03/28 03:06:08;;;;;;;12.95;1.67;;;2.40;99.90;;;;;;5005274;28;20065;-88
2023/03/28 03:08:34;;;;;;;10.95;1.67;;;2.40;99.90;;;;;;5001650;28;20828;-88
2023/03/28 03:11:00;;;;;;;8.43;1.63;;;2.00;99.90;;;;;;5013176;28;20138;-87
2023/03/28 03:13:25;;;;;;;15.77;1.83;;;2.40;99.90;;;;;;4989275;28;20042;-88
2023/03/28 03:15:55;;;;;;;11.93;3.83;;;2.40;99.90;;;;;;5002238;28;20046;-88
2023/03/28 03:18:21;;;;;;;8.63;1.20;;;2.40;99.90;;;;;;4993275;28;20046;-88
2023/03/28 03:20:49;;;;;;;6.85;1.20;;;1.80;99.90;;;;;;5000189;28;20038;-88
2023/03/28 03:23:15;;;;;;;7.80;1.48;;;2.40;99.90;;;;;;4990634;28;20043;-88
2023/03/28 03:25:42;;;;;;;9.30;1.00;;;2.30;99.90;;;;;;4996018;28;20072;-88
2023/03/28 03:28:08;;;;;;;11.48;1.80;;;2.40;99.90;;;;;;4989871;28;20045;-87
2023/03/28 03:30:34;;;;;;;5.85;1.23;;;3.30;99.90;;;;;;5001155;28;20084;-86
2023/03/28 03:33:04;;;;;;;9.75;1.48;;;2.30;99.90;;;;;;5002253;28;20141;-88
2023/03/28 03:35:33;;;;;;;7.45;1.00;;;2.20;99.90;;;;;;4995157;28;20535;-88
2023/03/28 03:37:59;;;;;;;12.98;1.77;;;2.30;99.90;;;;;;4978748;28;20038;-88
2023/03/28 03:40:25;;;;;;;8.23;1.30;;;2.30;99.90;;;;;;4977160;28;20504;-88
2023/03/28 03:42:51;;;;;;;10.15;1.33;;;2.20;99.90;;;;;;4984391;28;20096;-88
2023/03/28 03:45:17;;;;;;;15.48;1.60;;;2.20;99.90;;;;;;5002014;28;20140;-88
2023/03/28 03:47:43;;;;;;;10.50;1.63;;;2.20;99.90;;;;;;5011867;28;20046;-87
2023/03/28 03:50:12;;;;;;;9.05;1.27;;;2.20;99.90;;;;;;5000722;28;20045;-88
2023/03/28 03:52:38;;;;;;;6.28;1.50;;;2.20;99.90;;;;;;5000633;28;20180;-87
2023/03/28 03:55:05;;;;;;;12.88;2.33;;;2.60;99.90;;;;;;5000017;28;20046;-88
2023/03/28 03:57:31;;;;;;;10.25;1.73;;;2.20;99.90;;;;;;4998562;28;20064;-88
2023/03/28 03:59:57;;;;;;;8.32;1.20;;;2.20;99.90;;;;;;5000983;28;20057;-88
2023/03/28 04:02:23;;;;;;;8.55;1.42;;;2.20;99.90;;;;;;4980795;28;20046;-88
2023/03/28 04:04:48;;;;;;;11.13;1.95;;;2.20;99.90;;;;;;5020631;28;20046;-88
2023/03/28 04:07:15;;;;;;;8.27;1.33;;;2.20;99.90;;;;;;4992093;28;20038;-87
2023/03/28 04:09:40;;;;;;;10.45;1.80;;;2.10;99.90;;;;;;5000386;28;20129;-88
2023/03/28 04:12:10;;;;;;;11.25;1.65;;;2.10;99.90;;;;;;4998957;28;20046;-87
2023/03/28 04:14:36;;;;;;;8.65;1.35;;;2.20;99.90;;;;;;4994516;28;20825;-88
2023/03/28 04:17:03;;;;;;;5.57;0.98;;;2.40;99.90;;;;;;4999698;28;20042;-87
2023/03/28 04:19:29;;;;;;;10.82;1.50;;;2.40;99.90;;;;;;4983556;28;20112;-87
2023/03/28 04:21:58;;;;;;;8.20;1.40;;;2.20;99.90;;;;;;5004434;28;20046;-88
2023/03/28 04:24:23;;;;;;;8.50;2.20;;;2.10;99.90;;;;;;5014299;28;20072;-88
2023/03/28 04:26:54;;;;;;;5.90;1.30;;;2.00;99.90;;;;;;5012047;28;20053;-88
2023/03/28 04:29:29;;;;;;;10.95;1.20;;;2.00;99.90;;;;;;4984990;28;20662;-88
2023/03/28 04:31:58;;;;;;;11.57;2.30;;;2.00;99.90;;;;;;4991781;28;20049;-88
2023/03/28 04:34:28;;;;;;;14.55;1.63;;;2.00;99.90;;;;;;4991321;28;20042;-88
2023/03/28 04:37:01;;;;;;;10.13;1.48;;;2.00;99.90;;;;;;4998797;28;20041;-88
2023/03/28 04:39:34;;;;;;;11.48;1.38;;;1.90;99.90;;;;;;4987072;28;20060;-87
2023/03/28 04:42:03;;;;;;;10.57;1.60;;;1.90;99.90;;;;;;4982269;28;20057;-88
2023/03/28 04:44:29;;;;;;;11.65;1.55;;;1.90;99.90;;;;;;4996643;28;20074;-88
2023/03/28 04:46:57;;;;;;;8.20;1.27;;;1.90;99.90;;;;;;4981294;28;20041;-88
2023/03/28 04:49:23;;;;;;;6.70;1.40;;;1.80;99.90;;;;;;5009694;28;20585;-87
2023/03/28 04:51:52;;;;;;;8.25;2.50;;;1.80;99.90;;;;;;4994551;28;20056;-88
2023/03/28 04:54:18;;;;;;;10.43;1.40;;;1.80;99.90;;;;;;5001629;28;20045;-89
2023/03/28 04:56:46;;;;;;;7.63;1.25;;;2.00;99.90;;;;;;4994391;28;20062;-89
2023/03/28 04:59:12;;;;;;;8.98;1.70;;;2.40;99.90;;;;;;4983987;28;20045;-89
2023/03/28 05:01:38;;;;;;;8.32;1.38;;;1.90;99.90;;;;;;4980796;28;20144;-89
2023/03/28 05:04:05;;;;;;;10.60;1.50;;;1.90;99.90;;;;;;5009157;28;20563;-92
2023/03/28 05:06:31;;;;;;;9.63;1.40;;;1.90;99.90;;;;;;5006366;28;20404;-87
2023/03/28 05:08:57;;;;;;;7.38;3.35;;;1.90;99.90;;;;;;5001901;28;20046;-87
2023/03/28 05:11:23;;;;;;;7.03;1.33;;;1.90;99.90;;;;;;4997383;28;20046;-87
2023/03/28 05:13:49;;;;;;;6.50;1.25;;;3.10;99.90;;;;;;5010609;28;20042;-86
2023/03/28 05:16:16;;;;;;;12.38;1.67;;;1.90;99.90;;;;;;5015159;28;20670;-88
2023/03/28 05:18:44;;;;;;;10.35;1.52;;;1.50;99.90;;;;;;4997812;28;20553;-87
2023/03/28 05:21:10;;;;;;;14.23;1.98;;;1.80;99.90;;;;;;5002103;28;20034;-88
2023/03/28 05:23:36;;;;;;;10.73;2.10;;;1.80;99.90;;;;;;4999907;28;20517;-87
2023/03/28 05:26:02;;;;;;;9.80;1.65;;;1.80;99.90;;;;;;5001621;28;20034;-86
2023/03/28 05:28:28;;;;;;;8.75;1.73;;;1.80;99.90;;;;;;5000370;28;20042;-87
2023/03/28 05:30:56;;;;;;;7.35;1.40;;;1.80;99.90;;;;;;4996936;28;20133;-87
2023/03/28 05:33:22;;;;;;;7.35;1.15;;;1.80;99.90;;;;;;4990300;28;20029;-87
2023/03/28 05:35:48;;;;;;;8.77;1.20;;;1.80;99.90;;;;;;5014864;28;20038;-86
2023/03/28 05:38:15;;;;;;;6.35;1.27;;;2.50;99.90;;;;;;5000678;28;20124;-87
2023/03/28 05:40:41;;;;;;;10.80;2.38;;;1.80;99.90;;;;;;4981551;28;20149;-87
2023/03/28 05:43:07;;;;;;;11.65;1.58;;;1.80;99.90;;;;;;5001446;28;20502;-87
2023/03/28 05:45:36;;;;;;;12.10;2.05;;;1.80;99.90;;;;;;5002879;28;20045;-87
2023/03/28 05:48:02;;;;;;;9.80;1.85;;;1.80;99.90;;;;;;4993329;28;20048;-86
2023/03/28 05:50:30;;;;;;;7.97;1.38;;;1.70;99.90;;;;;;4976026;28;20046;-87
2023/03/28 05:52:56;;;;;;;7.80;1.55;;;1.70;99.90;;;;;;5002089;28;20111;-88
2023/03/28 05:55:24;;;;;;;10.93;1.92;;;1.70;99.90;;;;;;4977510;28;20038;-91
2023/03/28 05:57:50;;;;;;;10.32;2.30;;;1.80;99.90;;;;;;4991890;28;20547;-86
2023/03/28 06:00:20;;;;;;;9.32;1.42;;;2.10;99.90;;;;;;4997207;28;20155;-86
2023/03/28 06:02:46;;;;;;;6.68;1.58;;;1.90;99.90;;;;;;4998228;28;20042;-86
2023/03/28 06:05:12;;;;;;;13.82;2.58;;;1.90;99.90;;;;;;4999219;28;20042;-86
2023/03/28 06:07:38;;;;;;;9.43;1.70;;;1.90;99.90;;;;;;4997190;28;20042;-85
2023/03/28 06:10:05;;;;;;;12.20;2.08;;;2.30;99.90;;;;;;4999839;28;20065;-85
2023/03/28 06:12:31;;;;;;;11.18;2.22;;;2.00;99.90;;;;;;4999978;28;20111;-86
2023/03/28 06:14:57;;;;;;;7.28;2.30;;;2.00;99.90;;;;;;4995326;28;20054;-85
2023/03/28 06:17:23;;;;;;;11.57;2.05;;;2.00;99.90;;;;;;4998076;28;20112;-85
2023/03/28 06:19:50;;;;;;;17.05;2.80;;;2.10;99.90;;;;;;4998259;28;20127;-87
2023/03/28 06:22:16;;;;;;;12.63;1.80;;;2.10;99.90;;;;;;5002756;28;20054;-88
2023/03/28 06:24:42;;;;;;;6.72;1.20;;;2.10;99.90;;;;;;5002045;28;20076;-87
2023/03/28 06:27:08;;;;;;;7.30;1.85;;;2.20;99.90;;;;;;5019401;28;20045;-89
2023/03/28 06:29:34;;;;;;;7.68;1.77;;;2.30;99.90;;;;;;5004450;28;20053;-89
2023/03/28 06:31:59;;;;;;;9.85;1.85;;;2.40;99.90;;;;;;5001044;28;20073;-88
2023/03/28 06:34:25;;;;;;;9.55;1.80;;;2.40;99.90;;;;;;4981628;28;20064;-89
2023/03/28 06:36:52;;;;;;;13.82;2.72;;;2.50;99.90;;;;;;4983684;28;20037;-86
2023/03/28 06:39:20;;;;;;;11.15;1.75;;;2.50;99.90;;;;;;5007451;28;20341;-86
2023/03/28 06:41:46;;;;;;;12.32;2.08;;;2.50;99.90;;;;;;4994012;28;20049;-89
2023/03/28 06:44:12;;;;;;;12.52;1.55;;;2.60;99.90;;;;;;5002072;28;20054;-88
2023/03/28 06:46:38;;;;;;;6.75;1.77;;;2.60;99.90;;;;;;5011066;28;20064;-86
2023/03/28 06:49:04;;;;;;;8.25;1.88;;;2.70;99.90;;;;;;5000072;28;20041;-87
2023/03/28 06:51:29;;;;;;;12.32;1.60;;;2.70;99.90;;;;;;4997933;28;20081;-89
2023/03/28 06:53:55;;;;;;;11.77;2.10;;;2.80;99.90;;;;;;4994139;28;20141;-87
2023/03/28 06:56:21;;;;;;;8.43;2.05;;;2.80;99.90;;;;;;4987646;28;20382;-87
2023/03/28 06:58:47;;;;;;;13.70;1.88;;;2.90;99.90;;;;;;4993549;28;20042;-87
2023/03/28 07:01:16;;;;;;;10.65;1.98;;;2.90;99.90;;;;;;5010303;28;20666;-87
2023/03/28 07:03:41;;;;;;;10.32;2.00;;;3.00;99.90;;;;;;4990803;28;20046;-88
2023/03/28 07:06:10;;;;;;;13.52;1.77;;;3.00;99.90;;;;;;4985656;28;20042;-87
2023/03/28 07:08:36;;;;;;;9.15;2.10;;;3.10;99.90;;;;;;4993871;28;20038;-87
2023/03/28 07:11:08;;;;;;;12.00;2.00;;;3.10;99.90;;;;;;4991349;28;20037;-86
2023/03/28 07:13:36;;;;;;;10.80;2.67;;;3.10;99.90;;;;;;4978773;28;20042;-85
2023/03/28 07:16:10;;;;;;;18.98;3.05;;;3.20;99.90;;;;;;4988888;28;20073;-86
2023/03/28 07:18:36;;;;;;;8.55;2.20;;;3.40;99.90;;;;;;4996073;28;20136;-86
2023/03/28 07:21:10;;;;;;;9.93;1.83;;;3.30;99.90;;;;;;5017154;28;20042;-86
2023/03/28 07:23:40;;;;;;;8.68;1.55;;;3.30;99.90;;;;;;4995023;28;20367;-87
2023/03/28 07:26:08;;;;;;;13.52;1.92;;;3.40;99.90;;;;;;4995804;28;20034;-87
2023/03/28 07:28:35;;;;;;;9.90;1.55;;;3.50;99.90;;;;;;4997002;28;20062;-87
2023/03/28 07:31:04;;;;;;;10.32;1.50;;;3.50;99.90;;;;;;4998732;28;20735;-86
2023/03/28 07:33:34;;;;;;;9.05;1.40;;;3.50;99.90;;;;;;4981314;28;20073;-87
2023/03/28 07:36:10;;;;;;;9.23;1.45;;;2.80;99.90;;;;;;4986183;28;20120;-86
2023/03/28 07:38:36;;;;;;;8.65;1.23;;;3.50;99.90;;;;;;5008563;28;20042;-87
2023/03/28 07:41:02;;;;;;;6.68;1.38;;;3.50;99.90;;;;;;5011554;28;20253;-85
2023/03/28 07:43:28;;;;;;;8.27;1.05;;;3.50;99.90;;;;;;4997572;28;20034;-86
2023/03/28 07:46:05;;;;;;;15.07;1.80;;;4.60;99.90;;;;;;5007168;28;20766;-86
2023/03/28 07:48:31;;;;;;;10.70;2.05;;;3.60;99.90;;;;;;5005897;28;20046;-86
2023/03/28 07:50:59;;;;;;;9.70;1.38;;;3.30;99.90;;;;;;5005977;28;20118;-87
2023/03/28 07:53:25;;;;;;;8.80;1.27;;;3.70;99.90;;;;;;4994984;28;20050;-87
2023/03/28 07:55:50;;;;;;;12.43;1.38;;;3.80;99.90;;;;;;4996369;28;20038;-87
2023/03/28 07:58:16;;;;;;;13.32;1.27;;;3.90;99.90;;;;;;5010773;28;20492;-87
2023/03/28 08:00:44;;;;;;;7.40;1.20;;;4.00;99.90;;;;;;4999036;28;20049;-87
2023/03/28 08:03:14;;;;;;;9.50;1.58;;;4.70;99.90;;;;;;4997547;28;20099;-86
2023/03/28 08:05:42;;;;;;;5.90;1.50;;;4.10;99.90;;;;;;4981484;28;20050;-87
2023/03/28 08:08:08;;;;;;;9.35;1.50;;;4.20;99.90;;;;;;4996760;28;20034;-87
2023/03/28 08:10:34;;;;;;;6.13;1.08;;;4.30;99.90;;;;;;4995813;28;20093;-87
2023/03/28 08:13:02;;;;;;;8.40;1.42;;;4.60;99.90;;;;;;4993597;28;20622;-87
2023/03/28 08:15:28;;;;;;;11.85;1.77;;;4.40;99.90;;;;;;4993974;28;20128;-87
2023/03/28 08:17:54;;;;;;;10.80;1.17;;;4.40;99.90;;;;;;4988541;28;20034;-87
2023/03/28 08:20:22;;;;;;;7.90;0.85;;;4.50;99.90;;;;;;4996304;28;20056;-86
2023/03/28 08:22:51;;;;;;;6.88;1.08;;;4.60;99.90;;;;;;4994449;28;20121;-87
2023/03/28 08:25:17;;;;;;;8.65;1.73;;;4.70;99.90;;;;;;4996084;28;20049;-87
2023/03/28 08:27:46;;;;;;;6.53;1.00;;;4.90;99.90;;;;;;5024171;28;20341;-87
2023/03/28 08:30:18;;;;;;;5.55;0.80;;;5.00;99.90;;;;;;4996102;28;20045;-88
2023/03/28 08:32:44;;;;;;;6.75;1.13;;;5.20;99.90;;;;;;5012999;28;20078;-87
2023/03/28 08:35:10;;;;;;;6.25;0.80;;;5.00;99.90;;;;;;5005266;28;20046;-86
2023/03/28 08:37:40;;;;;;;3.22;0.82;;;5.40;99.90;;;;;;4986918;28;20080;-86
2023/03/28 08:40:12;;;;;;;7.22;1.23;;;5.40;99.90;;;;;;4990716;28;20049;-86
2023/03/28 08:42:46;;;;;;;8.02;1.00;;;5.50;99.90;;;;;;4995761;28;20049;-86
2023/03/28 08:45:35;;;;;;;7.97;1.15;;;5.60;99.90;;;;;;4997985;28;20504;-86
2023/03/28 08:48:06;;;;;;;3.47;0.68;;;5.70;99.90;;;;;;5008053;28;20096;-86
2023/03/28 08:50:43;;;;;;;7.95;1.08;;;5.80;99.90;;;;;;4992294;28;20567;-86
2023/03/28 08:53:25;;;;;;;10.10;1.20;;;5.80;99.90;;;;;;5006431;28;20120;-86
2023/03/28 08:55:56;;;;;;;7.25;0.98;;;5.80;99.90;;;;;;4998442;28;20502;-87
2023/03/28 08:58:30;;;;;;;15.75;1.38;;;5.90;99.90;;;;;;5010042;28;20089;-85
2023/03/28 09:01:19;;;;;;;;;;;;;;;;;;;;;
2023/03/28 09:03:45;;;;;;;5.20;1.30;;;5.90;99.90;;;;;;4995908;28;20052;-86
2023/03/28 09:06:38;;;;;;;6.93;1.00;;;5.90;99.90;;;;;;4992485;28;20120;-85
2023/03/28 09:09:46;;;;;;;6.30;0.95;;;6.00;99.90;;;;;;4991369;28;20064;-84
2023/03/28 09:12:30;;;;;;;10.65;1.33;;;6.00;99.90;;;;;;4970205;28;20381;-85
2023/03/28 09:15:19;;;;;;;9.45;0.80;;;6.10;99.90;;;;;;4972407;28;20042;-86
2023/03/28 09:18:15;;;;;;;5.97;0.70;;;6.70;99.90;;;;;;4966332;28;20042;-83
2023/03/28 09:20:49;;;;;;;6.10;0.80;;;6.30;99.90;;;;;;4974186;28;20077;-85
2023/03/28 09:24:11;;;;;;;6.55;1.00;;;6.40;99.90;;;;;;4969838;28;20057;-86
2023/03/28 09:26:46;;;;;;;2.70;0.52;;;6.50;99.90;;;;;;4931866;28;20051;-86
2023/03/28 09:29:22;;;;;;;5.10;0.70;;;6.70;99.90;;;;;;4922746;28;20063;-85
2023/03/28 09:31:51;;;;;;;5.60;0.63;;;6.80;99.90;;;;;;4952559;28;20161;-86
2023/03/28 09:34:33;;;;;;;6.05;0.82;;;7.00;99.90;;;;;;4954353;28;20045;-87
2023/03/28 09:37:26;;;;;;;5.38;1.00;;;7.20;99.90;;;;;;4988217;28;20053;-86
2023/03/28 09:39:55;;;;;;;3.70;0.70;;;7.30;99.90;;;;;;4960527;28;20046;-86
2023/03/28 09:42:46;;;;;;;6.45;0.70;;;7.40;99.90;;;;;;4986127;28;20117;-86
2023/03/28 09:45:35;;;;;;;8.05;0.77;;;7.50;99.90;;;;;;4994941;28;20056;-87
2023/03/28 09:48:10;;;;;;;3.17;0.82;;;7.60;99.90;;;;;;4994548;28;20568;-87
2023/03/28 09:50:36;;;;;;;6.10;0.98;;;7.70;99.90;;;;;;4986982;28;20050;-87
2023/03/28 09:53:05;;;;;;;4.65;0.80;;;7.80;99.90;;;;;;5000200;28;20050;-87
2023/03/28 09:55:33;;;;;;;4.68;0.63;;;8.20;99.90;;;;;;4993817;28;20043;-87
2023/03/28 09:58:07;;;;;;;4.28;0.63;;;7.90;99.90;;;;;;5000958;28;20058;-87
2023/03/28 10:00:41;;;;;;;4.72;0.70;;;7.90;99.90;;;;;;4997091;28;20430;-89
2023/03/28 10:03:28;;;;;;;13.43;0.95;;;7.90;99.90;;;;;;5003030;28;20061;-88
2023/03/28 10:06:17;;;;;;;5.63;1.00;;;7.90;99.90;;;;;;5004264;28;20088;-87
2023/03/28 10:08:43;;;;;;;5.45;0.80;;;7.90;99.90;;;;;;5014162;28;20091;-86
2023/03/28 10:11:13;;;;;;;6.55;1.13;;;7.90;99.90;;;;;;5000217;28;20605;-85
2023/03/28 10:13:42;;;;;;;6.80;1.20;;;8.00;99.90;;;;;;5023032;28;20037;-88
2023/03/28 10:16:13;;;;;;;3.75;0.88;;;7.90;99.90;;;;;;4995846;28;20098;-88
2023/03/28 10:18:41;;;;;;;2.45;0.68;;;8.10;99.90;;;;;;5006678;28;20038;-88
2023/03/28 10:21:16;;;;;;;7.18;0.98;;;8.30;99.90;;;;;;4998631;28;20038;-87
2023/03/28 10:23:48;;;;;;;4.53;1.10;;;8.40;99.90;;;;;;4997049;28;20106;-86
2023/03/28 10:26:21;;;;;;;4.60;0.90;;;8.60;99.90;;;;;;4996322;28;20053;-86
2023/03/28 10:28:52;;;;;;;3.88;1.00;;;8.60;99.90;;;;;;5004789;28;20139;-84
2023/03/28 10:31:30;;;;;;;5.93;0.93;;;8.70;99.90;;;;;;4989806;28;20037;-86
2023/03/28 10:34:01;;;;;;;4.32;0.80;;;8.70;99.90;;;;;;4995991;28;20583;-85
2023/03/28 10:36:31;;;;;;;4.13;0.75;;;8.60;99.90;;;;;;4991467;28;20046;-86
2023/03/28 10:38:57;;;;;;;8.40;1.67;;;8.40;99.90;;;;;;4987585;28;20388;-88
2023/03/28 10:41:28;;;;;;;7.32;1.00;;;8.20;99.90;;;;;;5010806;28;20042;-87
2023/03/28 10:43:57;;;;;;;8.30;1.45;;;8.10;99.90;;;;;;5000480;28;20055;-85
2023/03/28 10:46:30;;;;;;;9.60;1.52;;;8.00;99.90;;;;;;4985818;28;20273;-86
2023/03/28 10:49:01;;;;;;;4.47;1.25;;;7.90;99.90;;;;;;4995103;28;20088;-85
2023/03/28 10:51:30;;;;;;;5.75;1.27;;;7.90;99.90;;;;;;5013745;28;20034;-90
2023/03/28 10:53:56;;;;;;;9.10;1.90;;;7.80;99.90;;;;;;5013097;28;20118;-92
2023/03/28 10:56:51;;;;;;;5.93;1.10;;;7.80;99.90;;;;;;5026329;28;20042;-91
2023/03/28 10:59:41;;;;;;;5.68;1.02;;;7.70;99.90;;;;;;4975495;28;20054;-92
2023/03/28 11:02:10;;;;;;;6.15;1.00;;;7.70;99.90;;;;;;4973000;28;20047;-91
2023/03/28 11:04:54;;;;;;;5.65;1.05;;;7.80;99.90;;;;;;4967130;28;20046;-84
2023/03/28 11:07:35;;;;;;;4.97;0.90;;;8.00;99.90;;;;;;4965899;28;20734;-85
2023/03/28 11:10:13;;;;;;;5.97;1.00;;;8.20;99.90;;;;;;4963219;28;20449;-85
2023/03/28 11:12:59;;;;;;;5.47;0.77;;;8.20;99.90;;;;;;4932416;28;20039;-85
2023/03/28 11:15:36;;;;;;;3.50;0.77;;;8.30;99.90;;;;;;4960566;28;20058;-85
2023/03/28 11:18:21;;;;;;;5.20;1.38;;;8.30;99.90;;;;;;4962875;28;20074;-85
2023/03/28 11:21:08;;;;;;;7.78;1.20;;;8.40;99.90;;;;;;4950737;28;20071;-85
2023/03/28 11:24:11;;;;;;;6.78;1.27;;;8.40;99.90;;;;;;4960776;28;20054;-85
2023/03/28 11:26:59;;;;;;;5.80;1.10;;;8.30;99.90;;;;;;4964031;28;20051;-85
2023/03/28 11:30:02;;;;;;;5.15;0.98;;;8.30;99.90;;;;;;4960851;28;20043;-88
2023/03/28 11:32:41;;;;;;;6.28;1.23;;;8.40;99.90;;;;;;4931720;28;20065;-88
2023/03/28 11:35:21;;;;;;;4.68;1.02;;;8.50;99.90;;;;;;4958657;28;20257;-88
2023/03/28 11:38:04;;;;;;;5.68;1.20;;;8.60;99.90;;;;;;4947496;28;20413;-87
2023/03/28 11:40:56;;;;;;;4.38;1.10;;;8.70;99.90;;;;;;4964955;28;20035;-88
2023/03/28 11:43:38;;;;;;;5.32;1.17;;;8.80;99.90;;;;;;4990861;23;20050;-86
2023/03/28 11:46:26;;;;;;;5.90;1.20;;;8.90;99.90;;;;;;4993043;28;20045;-85
2023/03/28 11:49:09;;;;;;;5.47;0.93;;;9.10;99.90;;;;;;5004700;28;20054;-85
2023/03/28 11:51:42;;;;;;;4.50;1.10;;;9.30;99.90;;;;;;4989591;28;20050;-87
2023/03/28 11:54:29;;;;;;;5.20;1.90;;;9.50;99.90;;;;;;5002548;28;20056;-88
2023/03/28 11:57:17;;;;;;;6.05;1.38;;;9.60;99.90;;;;;;5005759;28;20067;-88
2023/03/28 11:59:46;;;;;;;5.53;1.88;;;9.80;99.90;;;;;;4988789;28;20061;-88
2023/03/28 12:02:30;;;;;;;4.10;1.33;;;9.70;99.90;;;;;;5005878;28;20065;-88
2023/03/28 12:05:15;;;;;;;4.68;1.30;;;9.80;99.40;;;;;;4990011;28;20049;-87
2023/03/28 12:08:14;;;;;;;6.50;1.50;;;9.70;99.50;;;;;;4982200;28;20069;-88
2023/03/28 12:10:44;;;;;;;5.32;1.67;;;9.60;99.30;;;;;;5005377;28;20057;-89
2023/03/28 12:13:31;;;;;;;8.05;1.63;;;10.60;99.80;;;;;;5002244;28;20042;-91
2023/03/28 12:16:06;;;;;;;4.93;1.52;;;9.60;99.70;;;;;;5005503;28;20460;-92
2023/03/28 12:18:40;;;;;;;5.53;1.73;;;9.70;99.90;;;;;;4991485;28;20038;-91
2023/03/28 12:21:10;;;;;;;6.80;1.70;;;9.80;99.80;;;;;;4990834;28;20061;-91
2023/03/28 12:23:53;;;;;;;5.30;2.03;;;10.40;99.90;;;;;;5005100;28;20042;-89
2023/03/28 12:26:41;;;;;;;8.45;2.13;;;9.80;99.90;;;;;;4989458;28;20038;-93
2023/03/28 12:29:38;;;;;;;6.82;1.40;;;10.00;99.90;;;;;;5011941;28;20038;-91
2023/03/28 12:32:35;;;;;;;7.32;2.08;;;10.10;99.90;;;;;;5007136;28;20050;-92
2023/03/28 12:35:14;;;;;;;6.63;1.73;;;10.20;99.90;;;;;;4997673;28;20048;-94
2023/03/28 12:37:53;;;;;;;7.00;1.83;;;10.20;99.40;;;;;;4987665;28;20089;-88
2023/03/28 12:40:58;;;;;;;4.40;1.23;;;9.80;98.60;;;;;;4996387;28;20061;-88
2023/03/28 12:43:42;;;;;;;4.88;1.60;;;10.30;98.00;;;;;;5000489;28;20054;-87
2023/03/28 12:46:24;;;;;;;6.80;1.50;;;10.30;99.30;;;;;;4995569;28;20117;-86
2023/03/28 12:48:59;;;;;;;3.45;1.30;;;10.40;99.50;;;;;;4995679;28;20121;-86
2023/03/28 12:51:30;;;;;;;5.65;1.50;;;10.70;99.00;;;;;;5000881;28;20644;-86
2023/03/28 12:54:24;;;;;;;5.15;1.63;;;10.50;98.10;;;;;;5008903;28;20046;-88
2023/03/28 12:57:03;;;;;;;7.70;1.70;;;10.40;97.10;;;;;;4987979;28;20057;-88
2023/03/28 12:59:38;;;;;;;6.78;1.50;;;10.40;98.80;;;;;;4995407;28;20040;-88
2023/03/28 13:02:24;;;;;;;4.55;1.73;;;10.50;98.50;;;;;;4980221;28;20054;-88
2023/03/28 13:05:13;;;;;;;4.75;1.77;;;10.40;97.70;;;;;;4999728;28;20597;-89
2023/03/28 13:07:45;;;;;;;8.52;1.95;;;10.30;97.30;;;;;;4996688;28;20057;-91
2023/03/28 13:10:19;;;;;;;6.97;1.48;;;10.30;97.80;;;;;;4961179;28;20038;-89
2023/03/28 13:12:53;;;;;;;5.05;1.50;;;10.20;98.40;;;;;;4977690;28;20046;-90
2023/03/28 13:15:30;;;;;;;5.68;1.38;;;10.30;98.20;;;;;;4967676;28;20480;-90
2023/03/28 13:18:21;;;;;;;5.07;1.60;;;10.20;98.20;;;;;;4953397;28;20073;-90
2023/03/28 13:20:50;;;;;;;3.78;1.38;;;10.30;98.70;;;;;;4973649;28;20085;-90
2023/03/28 13:23:17;;;;;;;7.80;2.28;;;10.20;97.70;;;;;;4971822;28;20050;-90
2023/03/28 13:25:53;;;;;;;4.25;1.20;;;10.30;98.50;;;;;;4959870;28;20211;-90
2023/03/28 13:28:33;;;;;;;8.05;1.60;;;10.30;98.40;;;;;;4980545;28;20136;-90